Time,TemperatureF,DewpointF,PressureIn,WindDirection,WindDirectionDegrees,WindSpeedMPH,WindSpeedGustMPH,Humidity,HourlyPrecipIn,Conditions,Clouds,dailyrainin,SoftwareType,DateUTC
2013-05-12 00:00:00,56.2,55.0,29.99,West,259,0.0,-999.0,97,-99.99,,,0.44,weatherlink.com 1.10,2013-05-12 07:00:00,
2013-05-12 00:20:00,54.9,54.0,29.99,NNW,332,0.0,-999.0,97,-99.99,,,0.01,weatherlink.com 1.10,2013-05-12 07:20:00,
2013-05-12 00:30:00,54.8,54.0,30.00,NNE,16,0.0,-999.0,98,-99.99,,,0.02,weatherlink.com 1.10,2013-05-12 07:30:00,
2013-05-12 00:45:00,55.2,55.0,30.00,NNE,16,0.0,-999.0,98,-99.99,,,0.04,weatherlink.com 1.10,2013-05-12 07:45:00,
2013-05-12 01:00:00,55.7,55.0,29.99,NNE,16,0.0,-999.0,98,-99.99,,,0.08,weatherlink.com 1.10,2013-05-12 08:00:00,
2013-05-12 01:21:00,55.8,55.0,30.00,NNE,16,0.0,-999.0,98,-99.99,,,0.10,weatherlink.com 1.10,2013-05-12 08:21:00,
2013-05-12 01:30:00,55.1,55.0,30.00,NNE,16,0.0,-999.0,98,-99.99,,,0.13,weatherlink.com 1.10,2013-05-12 08:30:00,
2013-05-12 01:45:00,54.6,54.0,30.00,NNE,16,0.0,-999.0,98,-99.99,,,0.16,weatherlink.com 1.10,2013-05-12 08:45:00,
2013-05-12 02:00:00,55.0,55.0,29.99,NNE,16,0.0,-999.0,98,-99.99,,,0.18,weatherlink.com 1.10,2013-05-12 09:00:00,
2013-05-12 02:21:00,55.4,55.0,29.99,NNE,16,0.0,-999.0,99,-99.99,,,0.24,weatherlink.com 1.10,2013-05-12 09:21:00,
2013-05-12 02:30:00,55.2,55.0,29.99,NNE,16,0.0,-999.0,98,-99.99,,,0.26,weatherlink.com 1.10,2013-05-12 09:30:00,
2013-05-12 02:45:00,55.4,55.0,29.98,NNE,16,0.0,-999.0,99,-99.99,,,0.27,weatherlink.com 1.10,2013-05-12 09:45:00,
2013-05-12 03:00:00,56.0,56.0,29.99,NNE,16,2.0,-999.0,99,-99.99,,,0.28,weatherlink.com 1.10,2013-05-12 10:00:00,
2013-05-12 03:21:00,56.5,56.0,29.99,West,273,0.0,-999.0,99,-99.99,,,0.28,weatherlink.com 1.10,2013-05-12 10:21:00,
2013-05-12 03:30:00,56.6,56.0,29.98,West,273,0.0,-999.0,98,-99.99,,,0.28,weatherlink.com 1.10,2013-05-12 10:30:00,
2013-05-12 03:45:00,56.2,56.0,29.99,West,273,2.0,-999.0,98,-99.99,,,0.28,weatherlink.com 1.10,2013-05-12 10:45:00,
2013-05-12 04:00:00,55.6,55.0,29.98,West,273,0.0,-999.0,98,-99.99,,,0.30,weatherlink.com 1.10,2013-05-12 11:00:00,
2013-05-12 04:21:00,55.5,55.0,29.99,SSE,167,0.0,-999.0,99,-99.99,,,0.30,weatherlink.com 1.10,2013-05-12 11:21:00,
2013-05-12 04:30:00,58.3,58.0,29.98,SSW,211,6.0,-999.0,99,-99.99,,,0.30,weatherlink.com 1.10,2013-05-12 11:30:00,
2013-05-12 04:45:00,58.3,58.0,29.99,SE,126,0.0,-999.0,99,-99.99,,,0.30,weatherlink.com 1.10,2013-05-12 11:45:00,
2013-05-12 05:00:00,58.2,57.0,29.98,WSW,242,0.0,-999.0,97,-99.99,,,0.31,weatherlink.com 1.10,2013-05-12 12:00:00,
2013-05-12 05:21:00,58.1,57.0,29.99,WSW,257,2.0,-999.0,97,-99.99,,,0.32,weatherlink.com 1.10,2013-05-12 12:21:00,
2013-05-12 05:30:00,58.0,57.0,29.98,SSW,212,2.0,-999.0,95,-99.99,,,0.32,weatherlink.com 1.10,2013-05-12 12:30:00,
2013-05-12 05:45:00,57.9,56.0,29.99,SE,144,1.0,-999.0,94,-99.99,,,0.33,weatherlink.com 1.10,2013-05-12 12:45:00,
2013-05-12 06:00:00,57.6,56.0,29.98,WNW,286,0.0,-999.0,94,-99.99,,,0.35,weatherlink.com 1.10,2013-05-12 13:00:00,
2013-05-12 06:21:00,57.3,56.0,29.99,ESE,115,1.0,-999.0,94,-99.99,,,0.35,weatherlink.com 1.10,2013-05-12 13:21:00,
2013-05-12 06:30:00,57.5,56.0,29.98,SE,132,3.0,-999.0,94,-99.99,,,0.35,weatherlink.com 1.10,2013-05-12 13:30:00,
2013-05-12 06:45:00,57.7,56.0,29.99,South,173,3.0,-999.0,93,-99.99,,,0.35,weatherlink.com 1.10,2013-05-12 13:45:00,
2013-05-12 07:00:00,57.1,55.0,29.99,ESE,103,0.0,-999.0,94,-99.99,,,0.35,weatherlink.com 1.10,2013-05-12 14:00:00,
2013-05-12 07:21:00,57.0,56.0,30.00,ESE,103,0.0,-999.0,95,-99.99,,,0.35,weatherlink.com 1.10,2013-05-12 14:21:00,
2013-05-12 07:30:00,56.4,55.0,30.00,ESE,103,0.0,-999.0,95,-99.99,,,0.35,weatherlink.com 1.10,2013-05-12 14:30:00,
2013-05-12 07:45:00,56.5,55.0,30.00,ESE,103,0.0,-999.0,95,-99.99,,,0.35,weatherlink.com 1.10,2013-05-12 14:45:00,
2013-05-12 08:00:00,56.1,55.0,30.00,ESE,103,0.0,-999.0,95,-99.99,,,0.36,weatherlink.com 1.10,2013-05-12 15:00:00,
2013-05-12 08:21:00,55.5,54.0,30.00,East,98,0.0,-999.0,95,-99.99,,,0.36,weatherlink.com 1.10,2013-05-12 15:21:00,
2013-05-12 08:30:00,56.1,55.0,30.00,East,98,0.0,-999.0,97,-99.99,,,0.36,weatherlink.com 1.10,2013-05-12 15:30:00,
2013-05-12 08:45:00,56.6,56.0,30.00,East,98,0.0,-999.0,97,-99.99,,,0.37,weatherlink.com 1.10,2013-05-12 15:45:00,
2013-05-12 09:00:00,57.3,57.0,30.00,East,98,0.0,-999.0,97,-99.99,,,0.37,weatherlink.com 1.10,2013-05-12 16:00:00,
2013-05-12 09:21:00,58.1,57.0,30.01,East,98,0.0,-999.0,97,-99.99,,,0.37,weatherlink.com 1.10,2013-05-12 16:21:00,
2013-05-12 09:30:00,56.9,55.0,30.01,NE,55,0.0,-999.0,94,-99.99,,,0.37,weatherlink.com 1.10,2013-05-12 16:30:00,
2013-05-12 09:45:00,55.6,54.0,30.01,East,82,0.0,-999.0,95,-99.99,,,0.37,weatherlink.com 1.10,2013-05-12 16:45:00,
2013-05-12 10:00:00,55.4,54.0,30.01,East,86,0.0,-999.0,95,-99.99,,,0.37,weatherlink.com 1.10,2013-05-12 17:00:00,
2013-05-12 10:21:00,55.6,54.0,30.01,ENE,69,0.0,-999.0,94,-99.99,,,0.37,weatherlink.com 1.10,2013-05-12 17:21:00,
2013-05-12 10:30:00,56.3,55.0,30.02,ESE,121,0.0,-999.0,95,-99.99,,,0.37,weatherlink.com 1.10,2013-05-12 17:30:00,
2013-05-12 10:45:00,56.5,55.0,30.02,ESE,119,0.0,-999.0,94,-99.99,,,0.37,weatherlink.com 1.10,2013-05-12 17:45:00,
2013-05-12 11:00:00,56.8,55.0,30.02,ESE,119,0.0,-999.0,95,-99.99,,,0.37,weatherlink.com 1.10,2013-05-12 18:00:00,
2013-05-12 11:21:00,56.1,54.0,30.02,SE,135,0.0,-999.0,94,-99.99,,,0.37,weatherlink.com 1.10,2013-05-12 18:21:00,
2013-05-12 11:30:00,55.3,53.0,30.03,East,82,0.0,-999.0,93,-99.99,,,0.37,weatherlink.com 1.10,2013-05-12 18:30:00,
2013-05-12 11:45:00,55.2,54.0,30.03,East,82,0.0,-999.0,94,-99.99,,,0.37,weatherlink.com 1.10,2013-05-12 18:45:00,
2013-05-12 12:00:00,55.9,54.0,30.03,East,82,0.0,-999.0,94,-99.99,,,0.37,weatherlink.com 1.10,2013-05-12 19:00:00,
2013-05-12 12:21:00,56.7,55.0,30.03,East,80,0.0,-999.0,93,-99.99,,,0.37,weatherlink.com 1.10,2013-05-12 19:21:00,
2013-05-12 12:30:00,56.4,54.0,30.03,SSE,156,0.0,-999.0,92,-99.99,,,0.37,weatherlink.com 1.10,2013-05-12 19:30:00,
2013-05-12 12:45:00,56.3,55.0,30.03,ENE,70,0.0,-999.0,94,-99.99,,,0.37,weatherlink.com 1.10,2013-05-12 19:45:00,
2013-05-12 13:00:00,55.7,54.0,30.03,NNE,15,0.0,-999.0,92,-99.99,,,0.37,weatherlink.com 1.10,2013-05-12 20:00:00,
2013-05-12 13:21:00,55.7,54.0,30.03,ESE,119,0.0,-999.0,93,-99.99,,,0.37,weatherlink.com 1.10,2013-05-12 20:21:00,
2013-05-12 13:30:00,56.7,55.0,30.03,ESE,117,0.0,-999.0,93,-99.99,,,0.37,weatherlink.com 1.10,2013-05-12 20:30:00,
2013-05-12 13:45:00,59.0,57.0,30.04,NW,321,3.0,-999.0,93,-99.99,,,0.37,weatherlink.com 1.10,2013-05-12 20:45:00,
2013-05-12 14:00:00,60.5,58.0,30.03,SW,214,7.0,-999.0,90,-99.99,,,0.37,weatherlink.com 1.10,2013-05-12 21:00:00,
2013-05-12 14:21:00,61.3,57.0,30.03,West,261,7.0,-999.0,87,-99.99,,,0.37,weatherlink.com 1.10,2013-05-12 21:21:00,
2013-05-12 14:30:00,61.4,57.0,30.03,WSW,252,5.0,-999.0,85,-99.99,,,0.37,weatherlink.com 1.10,2013-05-12 21:30:00,
2013-05-12 14:45:00,61.8,57.0,30.04,SSW,205,4.0,-999.0,85,-99.99,,,0.37,weatherlink.com 1.10,2013-05-12 21:45:00,
2013-05-12 15:00:00,61.1,57.0,30.03,SE,139,0.0,-999.0,86,-99.99,,,0.37,weatherlink.com 1.10,2013-05-12 22:00:00,
2013-05-12 15:21:00,61.3,57.0,30.03,West,265,0.0,-999.0,85,-99.99,,,0.37,weatherlink.com 1.10,2013-05-12 22:21:00,
2013-05-12 15:30:00,60.7,57.0,30.02,WSW,250,1.0,-999.0,87,-99.99,,,0.38,weatherlink.com 1.10,2013-05-12 22:30:00,
2013-05-12 15:45:00,60.1,57.0,30.03,West,267,6.0,-999.0,89,-99.99,,,0.38,weatherlink.com 1.10,2013-05-12 22:45:00,
2013-05-12 16:00:00,59.0,56.0,30.02,SW,230,0.0,-999.0,91,-99.99,,,0.39,weatherlink.com 1.10,2013-05-12 23:00:00,
2013-05-12 16:22:00,58.9,56.0,30.02,WNW,283,0.0,-999.0,91,-99.99,,,0.42,weatherlink.com 1.10,2013-05-12 23:22:00,
2013-05-12 16:30:00,58.6,56.0,30.02,ENE,57,0.0,-999.0,92,-99.99,,,0.42,weatherlink.com 1.10,2013-05-12 23:30:00,
2013-05-12 16:45:00,58.4,56.0,30.02,NW,306,3.0,-999.0,93,-99.99,,,0.44,weatherlink.com 1.10,2013-05-12 23:45:00,
2013-05-12 17:00:00,58.1,56.0,30.02,NNW,348,0.0,-999.0,94,-99.99,,,0.47,weatherlink.com 1.10,2013-05-13 00:00:00,
2013-05-12 17:21:00,57.4,56.0,30.02,WNW,296,0.0,-999.0,94,-99.99,,,0.49,weatherlink.com 1.10,2013-05-13 00:21:00,
2013-05-12 17:30:00,57.2,56.0,30.02,North,5,0.0,-999.0,95,-99.99,,,0.52,weatherlink.com 1.10,2013-05-13 00:30:00,
2013-05-12 17:45:00,56.8,55.0,30.02,North,360,2.0,-999.0,95,-99.99,,,0.55,weatherlink.com 1.10,2013-05-13 00:45:00,
2013-05-12 18:00:00,56.6,55.0,30.01,NNE,22,1.0,-999.0,95,-99.99,,,0.56,weatherlink.com 1.10,2013-05-13 01:00:00,
2013-05-12 18:21:00,54.9,54.0,30.00,South,173,0.0,-999.0,95,-99.99,,,0.56,weatherlink.com 1.10,2013-05-13 01:21:00,
2013-05-12 18:30:00,54.4,53.0,30.00,South,170,0.0,-999.0,96,-99.99,,,0.56,weatherlink.com 1.10,2013-05-13 01:30:00,
2013-05-12 18:45:00,54.3,54.0,30.01,South,170,0.0,-999.0,97,-99.99,,,0.56,weatherlink.com 1.10,2013-05-13 01:45:00,
2013-05-12 19:00:00,55.2,54.0,30.00,NNW,338,3.0,-999.0,97,-99.99,,,0.56,weatherlink.com 1.10,2013-05-13 02:00:00,
2013-05-12 19:21:00,55.0,54.0,29.99,North,360,3.0,-999.0,97,-99.99,,,0.57,weatherlink.com 1.10,2013-05-13 02:21:00,
2013-05-12 19:30:00,54.9,54.0,29.99,North,11,2.0,-999.0,97,-99.99,,,0.57,weatherlink.com 1.10,2013-05-13 02:30:00,
2013-05-12 19:45:00,53.9,53.0,29.99,SE,144,0.0,-999.0,96,-99.99,,,0.57,weatherlink.com 1.10,2013-05-13 02:45:00,
2013-05-12 20:00:00,53.5,53.0,29.98,South,175,3.0,-999.0,97,-99.99,,,0.57,weatherlink.com 1.10,2013-05-13 03:00:00,
2013-05-12 20:21:00,53.4,53.0,29.98,South,175,0.0,-999.0,97,-99.99,,,0.57,weatherlink.com 1.10,2013-05-13 03:21:00,
2013-05-12 20:45:00,53.7,53.0,29.99,South,175,0.0,-999.0,98,-99.99,,,0.57,weatherlink.com 1.10,2013-05-13 03:45:00,
2013-05-12 21:00:00,54.3,54.0,30.00,SW,234,0.0,-999.0,98,-99.99,,,0.57,weatherlink.com 1.10,2013-05-13 04:00:00,
2013-05-12 21:21:00,54.3,54.0,30.00,West,276,0.0,-999.0,97,-99.99,,,0.57,weatherlink.com 1.10,2013-05-13 04:21:00,
2013-05-12 21:30:00,54.3,54.0,30.00,West,276,0.0,-999.0,97,-99.99,,,0.57,weatherlink.com 1.10,2013-05-13 04:30:00,
2013-05-12 21:45:00,53.9,53.0,30.00,West,272,2.0,-999.0,97,-99.99,,,0.57,weatherlink.com 1.10,2013-05-13 04:45:00,
2013-05-12 22:00:00,53.7,53.0,30.00,West,267,0.0,-999.0,98,-99.99,,,0.57,weatherlink.com 1.10,2013-05-13 05:00:00,
2013-05-12 22:21:00,53.6,53.0,30.00,West,267,0.0,-999.0,97,-99.99,,,0.57,weatherlink.com 1.10,2013-05-13 05:21:00,
2013-05-12 22:30:00,53.8,53.0,30.00,West,267,0.0,-999.0,98,-99.99,,,0.57,weatherlink.com 1.10,2013-05-13 05:30:00,
2013-05-12 22:45:00,53.9,53.0,30.00,West,267,0.0,-999.0,98,-99.99,,,0.57,weatherlink.com 1.10,2013-05-13 05:45:00,
2013-05-12 23:00:00,54.2,54.0,30.00,WNW,298,0.0,-999.0,98,-99.99,,,0.57,weatherlink.com 1.10,2013-05-13 06:00:00,
2013-05-12 23:21:00,54.3,54.0,30.00,NNW,334,1.0,-999.0,98,-99.99,,,0.57,weatherlink.com 1.10,2013-05-13 06:21:00,
2013-05-12 23:30:00,54.3,54.0,29.99,North,5,0.0,-999.0,98,-99.99,,,0.57,weatherlink.com 1.10,2013-05-13 06:30:00,
2013-05-12 23:45:00,54.2,53.0,30.00,NNW,336,3.0,-999.0,97,-99.99,,,0.57,weatherlink.com 1.10,2013-05-13 06:45:00,